sensor_id;sensor_type;location;lat;lon;timestamp;P1;durP1;ratioP1;P2;durP2;ratioP2
26062;SDS011;13837;48.562;12.108;2022-11-20T00:01:25;49.15;;;34.10;;
26062;SDS011;13837;48.562;12.108;2022-11-20T00:03:52;48.28;;;35.38;;
26062;SDS011;13837;48.562;12.108;2022-11-20T00:06:19;47.05;;;34.50;;
26062;SDS011;13837;48.562;12.108;2022-11-20T00:08:45;44.22;;;31.35;;
26062;SDS011;13837;48.562;12.108;2022-11-20T00:13:42;36.33;;;28.85;;
26062;SDS011;13837;48.562;12.108;2022-11-20T00:16:10;39.28;;;29.90;;
26062;SDS011;13837;48.562;12.108;2022-11-20T00:18:37;37.17;;;29.48;;
26062;SDS011;13837;48.562;12.108;2022-11-20T00:21:04;37.58;;;30.08;;
26062;SDS011;13837;48.562;12.108;2022-11-20T00:23:31;40.25;;;30.27;;
26062;SDS011;13837;48.562;12.108;2022-11-20T00:26:00;39.65;;;29.65;;
26062;SDS011;13837;48.562;12.108;2022-11-20T00:28:33;40.40;;;29.67;;
26062;SDS011;13837;48.562;12.108;2022-11-20T00:31:09;35.80;;;29.88;;
26062;SDS011;13837;48.562;12.108;2022-11-20T00:33:37;34.75;;;28.95;;
26062;SDS011;13837;48.562;12.108;2022-11-20T00:36:04;40.83;;;29.00;;
26062;SDS011;13837;48.562;12.108;2022-11-20T00:38:32;39.45;;;30.13;;
26062;SDS011;13837;48.562;12.108;2022-11-20T00:40:58;40.67;;;30.77;;
26062;SDS011;13837;48.562;12.108;2022-11-20T00:43:26;34.85;;;28.77;;
26062;SDS011;13837;48.562;12.108;2022-11-20T00:46:02;40.10;;;29.38;;
26062;SDS011;13837;48.562;12.108;2022-11-20T00:48:30;34.97;;;28.30;;
26062;SDS011;13837;48.562;12.108;2022-11-20T00:50:56;37.50;;;29.48;;
26062;SDS011;13837;48.562;12.108;2022-11-20T00:53:22;40.30;;;31.08;;
26062;SDS011;13837;48.562;12.108;2022-11-20T00:56:02;38.53;;;30.00;;
26062;SDS011;13837;48.562;12.108;2022-11-20T00:58:31;39.05;;;29.95;;
26062;SDS011;13837;48.562;12.108;2022-11-20T01:01:02;37.08;;;29.63;;
26062;SDS011;13837;48.562;12.108;2022-11-20T01:03:30;41.00;;;31.58;;
26062;SDS011;13837;48.562;12.108;2022-11-20T01:06:00;35.60;;;29.30;;
26062;SDS011;13837;48.562;12.108;2022-11-20T01:08:35;41.40;;;30.40;;
26062;SDS011;13837;48.562;12.108;2022-11-20T01:11:03;38.72;;;29.20;;
26062;SDS011;13837;48.562;12.108;2022-11-20T01:18:32;42.92;;;31.48;;
26062;SDS011;13837;48.562;12.108;2022-11-20T01:21:03;38.72;;;29.70;;
26062;SDS011;13837;48.562;12.108;2022-11-20T01:23:33;40.95;;;29.65;;
26062;SDS011;13837;48.562;12.108;2022-11-20T01:26:01;36.90;;;28.33;;
26062;SDS011;13837;48.562;12.108;2022-11-20T01:28:28;35.33;;;28.05;;
26062;SDS011;13837;48.562;12.108;2022-11-20T01:30:54;36.10;;;28.77;;
26062;SDS011;13837;48.562;12.108;2022-11-20T01:33:19;32.33;;;26.58;;
26062;SDS011;13837;48.562;12.108;2022-11-20T01:35:45;31.73;;;27.52;;
26062;SDS011;13837;48.562;12.108;2022-11-20T01:38:11;31.52;;;26.40;;
26062;SDS011;13837;48.562;12.108;2022-11-20T01:40:37;36.10;;;27.88;;
26062;SDS011;13837;48.562;12.108;2022-11-20T01:43:12;34.85;;;27.55;;
26062;SDS011;13837;48.562;12.108;2022-11-20T01:48:39;33.17;;;26.50;;
26062;SDS011;13837;48.562;12.108;2022-11-20T01:51:26;41.13;;;28.73;;
26062;SDS011;13837;48.562;12.108;2022-11-20T01:54:00;31.67;;;26.83;;
26062;SDS011;13837;48.562;12.108;2022-11-20T01:56:28;34.05;;;27.50;;
26062;SDS011;13837;48.562;12.108;2022-11-20T01:58:56;30.08;;;25.73;;
26062;SDS011;13837;48.562;12.108;2022-11-20T02:01:25;34.67;;;29.30;;
26062;SDS011;13837;48.562;12.108;2022-11-20T02:03:51;29.77;;;26.58;;
26062;SDS011;13837;48.562;12.108;2022-11-20T02:09:00;32.17;;;25.08;;
26062;SDS011;13837;48.562;12.108;2022-11-20T02:11:25;39.35;;;27.75;;
26062;SDS011;13837;48.562;12.108;2022-11-20T02:13:51;34.00;;;27.08;;
26062;SDS011;13837;48.562;12.108;2022-11-20T02:18:49;31.40;;;26.75;;
26062;SDS011;13837;48.562;12.108;2022-11-20T02:24:01;28.73;;;25.63;;
26062;SDS011;13837;48.562;12.108;2022-11-20T02:26:42;28.40;;;25.42;;
26062;SDS011;13837;48.562;12.108;2022-11-20T02:29:25;28.98;;;25.95;;
26062;SDS011;13837;48.562;12.108;2022-11-20T02:31:55;28.98;;;25.98;;
26062;SDS011;13837;48.562;12.108;2022-11-20T02:34:22;28.98;;;25.88;;
26062;SDS011;13837;48.562;12.108;2022-11-20T02:36:48;28.48;;;25.50;;
26062;SDS011;13837;48.562;12.108;2022-11-20T02:39:16;28.00;;;25.00;;
26062;SDS011;13837;48.562;12.108;2022-11-20T02:41:42;28.27;;;24.85;;
26062;SDS011;13837;48.562;12.108;2022-11-20T02:44:07;28.92;;;25.50;;
26062;SDS011;13837;48.562;12.108;2022-11-20T02:46:33;26.90;;;23.98;;
26062;SDS011;13837;48.562;12.108;2022-11-20T02:49:00;27.75;;;24.75;;
26062;SDS011;13837;48.562;12.108;2022-11-20T02:51:27;30.83;;;25.80;;
26062;SDS011;13837;48.562;12.108;2022-11-20T02:53:53;29.95;;;25.15;;
26062;SDS011;13837;48.562;12.108;2022-11-20T02:56:19;28.77;;;24.17;;
26062;SDS011;13837;48.562;12.108;2022-11-20T02:58:45;28.70;;;25.60;;
26062;SDS011;13837;48.562;12.108;2022-11-20T03:01:11;28.95;;;24.88;;
26062;SDS011;13837;48.562;12.108;2022-11-20T03:03:37;29.60;;;26.40;;
26062;SDS011;13837;48.562;12.108;2022-11-20T03:06:03;29.88;;;26.55;;
26062;SDS011;13837;48.562;12.108;2022-11-20T03:08:29;32.05;;;26.33;;
26062;SDS011;13837;48.562;12.108;2022-11-20T03:10:54;27.88;;;24.88;;
26062;SDS011;13837;48.562;12.108;2022-11-20T03:13:20;28.33;;;25.40;;
26062;SDS011;13837;48.562;12.108;2022-11-20T03:15:46;31.27;;;26.55;;
26062;SDS011;13837;48.562;12.108;2022-11-20T03:18:11;27.08;;;24.05;;
26062;SDS011;13837;48.562;12.108;2022-11-20T03:20:38;27.90;;;24.92;;
26062;SDS011;13837;48.562;12.108;2022-11-20T03:23:04;28.85;;;25.70;;
26062;SDS011;13837;48.562;12.108;2022-11-20T03:25:30;27.17;;;24.23;;
26062;SDS011;13837;48.562;12.108;2022-11-20T03:27:56;27.92;;;25.05;;
26062;SDS011;13837;48.562;12.108;2022-11-20T03:30:22;27.48;;;24.58;;
26062;SDS011;13837;48.562;12.108;2022-11-20T03:32:47;30.02;;;24.13;;
26062;SDS011;13837;48.562;12.108;2022-11-20T03:35:13;28.20;;;24.38;;
26062;SDS011;13837;48.562;12.108;2022-11-20T03:37:39;27.58;;;24.77;;
26062;SDS011;13837;48.562;12.108;2022-11-20T03:40:05;28.02;;;24.08;;
26062;SDS011;13837;48.562;12.108;2022-11-20T03:42:31;26.88;;;23.05;;
26062;SDS011;13837;48.562;12.108;2022-11-20T03:45:13;27.00;;;24.17;;
26062;SDS011;13837;48.562;12.108;2022-11-20T03:47:39;28.15;;;25.05;;
26062;SDS011;13837;48.562;12.108;2022-11-20T03:50:05;29.38;;;24.70;;
26062;SDS011;13837;48.562;12.108;2022-11-20T03:52:32;27.75;;;24.65;;
26062;SDS011;13837;48.562;12.108;2022-11-20T03:54:57;28.40;;;25.60;;
26062;SDS011;13837;48.562;12.108;2022-11-20T03:57:23;30.13;;;24.67;;
26062;SDS011;13837;48.562;12.108;2022-11-20T03:59:49;29.67;;;26.02;;
26062;SDS011;13837;48.562;12.108;2022-11-20T04:02:14;29.77;;;26.60;;
26062;SDS011;13837;48.562;12.108;2022-11-20T04:04:40;33.00;;;26.75;;
26062;SDS011;13837;48.562;12.108;2022-11-20T04:07:06;28.55;;;25.38;;
26062;SDS011;13837;48.562;12.108;2022-11-20T04:09:31;29.77;;;26.60;;
26062;SDS011;13837;48.562;12.108;2022-11-20T04:11:57;28.58;;;25.38;;
26062;SDS011;13837;48.562;12.108;2022-11-20T04:14:23;26.17;;;23.60;;
26062;SDS011;13837;48.562;12.108;2022-11-20T04:16:48;24.02;;;21.70;;
26062;SDS011;13837;48.562;12.108;2022-11-20T04:19:15;25.83;;;23.17;;
26062;SDS011;13837;48.562;12.108;2022-11-20T04:21:42;25.15;;;22.75;;
26062;SDS011;13837;48.562;12.108;2022-11-20T04:24:09;24.80;;;22.52;;
26062;SDS011;13837;48.562;12.108;2022-11-20T04:26:35;25.00;;;22.60;;
26062;SDS011;13837;48.562;12.108;2022-11-20T04:29:01;24.27;;;22.20;;
26062;SDS011;13837;48.562;12.108;2022-11-20T04:31:28;25.15;;;22.45;;
26062;SDS011;13837;48.562;12.108;2022-11-20T04:33:58;24.70;;;22.50;;
26062;SDS011;13837;48.562;12.108;2022-11-20T04:36:26;22.95;;;21.05;;
26062;SDS011;13837;48.562;12.108;2022-11-20T04:38:54;23.77;;;21.67;;
26062;SDS011;13837;48.562;12.108;2022-11-20T04:41:24;23.38;;;21.58;;
26062;SDS011;13837;48.562;12.108;2022-11-20T04:43:56;23.08;;;21.10;;
26062;SDS011;13837;48.562;12.108;2022-11-20T04:46:24;24.42;;;22.48;;
26062;SDS011;13837;48.562;12.108;2022-11-20T04:48:52;22.48;;;20.45;;
26062;SDS011;13837;48.562;12.108;2022-11-20T04:51:18;22.83;;;20.92;;
26062;SDS011;13837;48.562;12.108;2022-11-20T04:53:44;22.20;;;20.48;;
26062;SDS011;13837;48.562;12.108;2022-11-20T04:56:10;22.02;;;20.23;;
26062;SDS011;13837;48.562;12.108;2022-11-20T04:58:37;22.65;;;20.75;;
26062;SDS011;13837;48.562;12.108;2022-11-20T05:01:04;21.60;;;20.10;;
26062;SDS011;13837;48.562;12.108;2022-11-20T05:03:31;22.20;;;20.27;;
26062;SDS011;13837;48.562;12.108;2022-11-20T05:06:04;21.38;;;19.58;;
26062;SDS011;13837;48.562;12.108;2022-11-20T05:08:31;21.67;;;19.92;;
26062;SDS011;13837;48.562;12.108;2022-11-20T05:11:04;22.45;;;20.42;;
26062;SDS011;13837;48.562;12.108;2022-11-20T05:13:32;22.75;;;20.85;;
26062;SDS011;13837;48.562;12.108;2022-11-20T05:16:01;21.70;;;20.10;;
26062;SDS011;13837;48.562;12.108;2022-11-20T05:18:38;22.27;;;20.58;;
26062;SDS011;13837;48.562;12.108;2022-11-20T05:21:05;22.48;;;20.77;;
26062;SDS011;13837;48.562;12.108;2022-11-20T05:23:31;22.33;;;20.63;;
26062;SDS011;13837;48.562;12.108;2022-11-20T05:25:58;21.55;;;19.83;;
26062;SDS011;13837;48.562;12.108;2022-11-20T05:28:25;22.20;;;20.60;;
26062;SDS011;13837;48.562;12.108;2022-11-20T05:30:52;22.42;;;20.65;;
26062;SDS011;13837;48.562;12.108;2022-11-20T05:33:18;21.20;;;19.63;;
26062;SDS011;13837;48.562;12.108;2022-11-20T05:35:44;21.35;;;19.80;;
26062;SDS011;13837;48.562;12.108;2022-11-20T05:38:10;21.45;;;19.85;;
26062;SDS011;13837;48.562;12.108;2022-11-20T05:40:36;22.02;;;20.23;;
26062;SDS011;13837;48.562;12.108;2022-11-20T05:43:01;21.95;;;20.17;;
26062;SDS011;13837;48.562;12.108;2022-11-20T05:45:27;20.88;;;19.27;;
26062;SDS011;13837;48.562;12.108;2022-11-20T05:47:57;20.50;;;19.02;;
26062;SDS011;13837;48.562;12.108;2022-11-20T05:50:24;21.67;;;20.08;;
26062;SDS011;13837;48.562;12.108;2022-11-20T05:52:49;21.65;;;19.95;;
26062;SDS011;13837;48.562;12.108;2022-11-20T05:55:15;21.42;;;19.92;;
26062;SDS011;13837;48.562;12.108;2022-11-20T05:57:41;20.50;;;18.80;;
26062;SDS011;13837;48.562;12.108;2022-11-20T06:00:07;20.52;;;19.02;;
26062;SDS011;13837;48.562;12.108;2022-11-20T06:02:34;20.10;;;18.63;;
26062;SDS011;13837;48.562;12.108;2022-11-20T06:05:01;20.05;;;18.65;;
26062;SDS011;13837;48.562;12.108;2022-11-20T06:07:26;20.42;;;18.83;;
26062;SDS011;13837;48.562;12.108;2022-11-20T06:09:52;19.55;;;18.10;;
26062;SDS011;13837;48.562;12.108;2022-11-20T06:12:18;19.55;;;18.15;;
26062;SDS011;13837;48.562;12.108;2022-11-20T06:14:43;19.42;;;17.65;;
26062;SDS011;13837;48.562;12.108;2022-11-20T06:17:09;19.08;;;17.73;;
26062;SDS011;13837;48.562;12.108;2022-11-20T06:19:35;19.67;;;18.30;;
26062;SDS011;13837;48.562;12.108;2022-11-20T06:22:00;19.50;;;18.10;;
26062;SDS011;13837;48.562;12.108;2022-11-20T06:24:26;19.08;;;17.67;;
26062;SDS011;13837;48.562;12.108;2022-11-20T06:26:52;22.02;;;20.33;;
26062;SDS011;13837;48.562;12.108;2022-11-20T06:29:18;20.77;;;19.10;;
26062;SDS011;13837;48.562;12.108;2022-11-20T06:31:43;21.30;;;19.63;;
26062;SDS011;13837;48.562;12.108;2022-11-20T06:34:09;21.73;;;19.92;;
26062;SDS011;13837;48.562;12.108;2022-11-20T06:36:35;21.23;;;19.55;;
26062;SDS011;13837;48.562;12.108;2022-11-20T06:39:01;20.23;;;18.92;;
26062;SDS011;13837;48.562;12.108;2022-11-20T06:41:27;20.50;;;19.10;;
26062;SDS011;13837;48.562;12.108;2022-11-20T06:43:53;20.85;;;19.35;;
26062;SDS011;13837;48.562;12.108;2022-11-20T06:46:19;21.55;;;20.05;;
26062;SDS011;13837;48.562;12.108;2022-11-20T06:48:46;20.50;;;19.10;;
26062;SDS011;13837;48.562;12.108;2022-11-20T06:51:12;20.73;;;19.20;;
26062;SDS011;13837;48.562;12.108;2022-11-20T06:53:38;20.05;;;18.75;;
26062;SDS011;13837;48.562;12.108;2022-11-20T06:56:04;19.60;;;18.35;;
26062;SDS011;13837;48.562;12.108;2022-11-20T06:58:32;19.80;;;18.35;;
26062;SDS011;13837;48.562;12.108;2022-11-20T07:01:07;19.50;;;18.20;;
26062;SDS011;13837;48.562;12.108;2022-11-20T07:03:38;27.95;;;26.00;;
26062;SDS011;13837;48.562;12.108;2022-11-20T07:06:04;20.85;;;19.45;;
26062;SDS011;13837;48.562;12.108;2022-11-20T07:08:31;20.95;;;19.55;;
26062;SDS011;13837;48.562;12.108;2022-11-20T07:10:59;21.55;;;19.95;;
26062;SDS011;13837;48.562;12.108;2022-11-20T07:13:26;19.55;;;18.10;;
26062;SDS011;13837;48.562;12.108;2022-11-20T07:15:52;21.30;;;19.70;;
26062;SDS011;13837;48.562;12.108;2022-11-20T07:18:18;21.52;;;19.92;;
26062;SDS011;13837;48.562;12.108;2022-11-20T07:20:43;19.67;;;18.42;;
26062;SDS011;13837;48.562;12.108;2022-11-20T07:23:09;21.83;;;20.23;;
26062;SDS011;13837;48.562;12.108;2022-11-20T07:25:35;21.95;;;20.35;;
26062;SDS011;13837;48.562;12.108;2022-11-20T07:28:01;21.38;;;19.88;;
26062;SDS011;13837;48.562;12.108;2022-11-20T07:30:27;20.55;;;18.88;;
26062;SDS011;13837;48.562;12.108;2022-11-20T07:32:54;20.48;;;18.98;;
26062;SDS011;13837;48.562;12.108;2022-11-20T07:35:20;21.52;;;19.80;;
26062;SDS011;13837;48.562;12.108;2022-11-20T07:37:46;24.30;;;22.10;;
26062;SDS011;13837;48.562;12.108;2022-11-20T07:40:13;22.38;;;20.48;;
26062;SDS011;13837;48.562;12.108;2022-11-20T07:42:53;22.17;;;20.30;;
26062;SDS011;13837;48.562;12.108;2022-11-20T07:45:20;20.60;;;19.10;;
26062;SDS011;13837;48.562;12.108;2022-11-20T07:47:47;20.50;;;19.05;;
26062;SDS011;13837;48.562;12.108;2022-11-20T07:50:13;20.35;;;18.83;;
26062;SDS011;13837;48.562;12.108;2022-11-20T07:52:40;20.67;;;19.00;;
26062;SDS011;13837;48.562;12.108;2022-11-20T07:55:06;21.65;;;20.13;;
26062;SDS011;13837;48.562;12.108;2022-11-20T07:57:32;19.80;;;18.45;;
26062;SDS011;13837;48.562;12.108;2022-11-20T07:59:58;21.08;;;19.58;;
26062;SDS011;13837;48.562;12.108;2022-11-20T08:02:24;25.08;;;22.88;;
26062;SDS011;13837;48.562;12.108;2022-11-20T08:04:49;19.48;;;17.90;;
26062;SDS011;13837;48.562;12.108;2022-11-20T08:07:15;21.60;;;19.90;;
26062;SDS011;13837;48.562;12.108;2022-11-20T08:09:41;21.48;;;19.77;;
26062;SDS011;13837;48.562;12.108;2022-11-20T08:12:06;20.73;;;19.00;;
26062;SDS011;13837;48.562;12.108;2022-11-20T08:15:03;22.10;;;20.40;;
26062;SDS011;13837;48.562;12.108;2022-11-20T08:17:30;20.58;;;18.75;;
26062;SDS011;13837;48.562;12.108;2022-11-20T08:19:55;20.17;;;18.63;;
26062;SDS011;13837;48.562;12.108;2022-11-20T08:22:21;20.42;;;18.73;;
26062;SDS011;13837;48.562;12.108;2022-11-20T08:24:47;19.10;;;17.60;;
26062;SDS011;13837;48.562;12.108;2022-11-20T08:27:13;19.52;;;18.13;;
26062;SDS011;13837;48.562;12.108;2022-11-20T08:29:39;19.92;;;18.52;;
26062;SDS011;13837;48.562;12.108;2022-11-20T08:32:04;18.70;;;17.17;;
26062;SDS011;13837;48.562;12.108;2022-11-20T08:34:30;19.33;;;17.92;;
26062;SDS011;13837;48.562;12.108;2022-11-20T08:36:56;19.02;;;17.45;;
26062;SDS011;13837;48.562;12.108;2022-11-20T08:39:22;18.08;;;16.88;;
26062;SDS011;13837;48.562;12.108;2022-11-20T08:41:47;18.20;;;17.00;;
26062;SDS011;13837;48.562;12.108;2022-11-20T08:44:13;18.52;;;17.33;;
26062;SDS011;13837;48.562;12.108;2022-11-20T08:46:39;18.63;;;17.23;;
26062;SDS011;13837;48.562;12.108;2022-11-20T08:49:07;19.23;;;17.52;;
26062;SDS011;13837;48.562;12.108;2022-11-20T08:51:35;17.58;;;16.48;;
26062;SDS011;13837;48.562;12.108;2022-11-20T08:54:01;20.17;;;18.58;;
26062;SDS011;13837;48.562;12.108;2022-11-20T08:56:27;16.65;;;15.45;;
26062;SDS011;13837;48.562;12.108;2022-11-20T08:58:53;17.40;;;16.20;;
26062;SDS011;13837;48.562;12.108;2022-11-20T09:01:19;17.08;;;15.88;;
26062;SDS011;13837;48.562;12.108;2022-11-20T09:03:46;17.35;;;16.15;;
26062;SDS011;13837;48.562;12.108;2022-11-20T09:06:12;17.25;;;16.15;;
26062;SDS011;13837;48.562;12.108;2022-11-20T09:08:38;18.33;;;17.15;;
26062;SDS011;13837;48.562;12.108;2022-11-20T09:11:05;18.17;;;16.80;;
26062;SDS011;13837;48.562;12.108;2022-11-20T09:13:32;17.80;;;16.50;;
26062;SDS011;13837;48.562;12.108;2022-11-20T09:16:00;19.65;;;18.02;;
26062;SDS011;13837;48.562;12.108;2022-11-20T09:18:30;19.23;;;17.67;;
26062;SDS011;13837;48.562;12.108;2022-11-20T09:21:02;17.42;;;16.33;;
26062;SDS011;13837;48.562;12.108;2022-11-20T09:23:34;18.75;;;17.17;;
26062;SDS011;13837;48.562;12.108;2022-11-20T09:28:30;18.25;;;16.98;;
26062;SDS011;13837;48.562;12.108;2022-11-20T09:30:56;18.58;;;17.13;;
26062;SDS011;13837;48.562;12.108;2022-11-20T09:33:22;19.88;;;18.38;;
26062;SDS011;13837;48.562;12.108;2022-11-20T09:35:48;20.98;;;19.17;;
26062;SDS011;13837;48.562;12.108;2022-11-20T09:38:14;18.02;;;16.73;;
26062;SDS011;13837;48.562;12.108;2022-11-20T09:40:43;17.75;;;16.20;;
26062;SDS011;13837;48.562;12.108;2022-11-20T09:51:30;17.23;;;16.05;;
26062;SDS011;13837;48.562;12.108;2022-11-20T09:56:31;17.50;;;16.10;;
26062;SDS011;13837;48.562;12.108;2022-11-20T09:59:03;16.85;;;15.68;;
26062;SDS011;13837;48.562;12.108;2022-11-20T10:01:35;18.17;;;16.88;;
26062;SDS011;13837;48.562;12.108;2022-11-20T10:04:14;17.27;;;15.98;;
26062;SDS011;13837;48.562;12.108;2022-11-20T10:09:51;16.52;;;15.32;;
26062;SDS011;13837;48.562;12.108;2022-11-20T10:12:25;16.23;;;15.13;;
26062;SDS011;13837;48.562;12.108;2022-11-20T10:18:02;14.80;;;13.90;;
26062;SDS011;13837;48.562;12.108;2022-11-20T10:31:37;17.30;;;16.20;;
26062;SDS011;13837;48.562;12.108;2022-11-20T10:34:06;15.63;;;14.38;;
26062;SDS011;13837;48.562;12.108;2022-11-20T10:36:42;15.70;;;14.70;;
26062;SDS011;13837;48.562;12.108;2022-11-20T10:41:56;16.92;;;15.82;;
26062;SDS011;13837;48.562;12.108;2022-11-20T10:44:26;17.45;;;16.33;;
26062;SDS011;13837;48.562;12.108;2022-11-20T10:49:42;15.73;;;14.73;;
26062;SDS011;13837;48.562;12.108;2022-11-20T10:55:42;15.02;;;14.13;;
26062;SDS011;13837;48.562;12.108;2022-11-20T11:00:37;14.30;;;13.30;;
26062;SDS011;13837;48.562;12.108;2022-11-20T11:03:07;14.98;;;13.90;;
26062;SDS011;13837;48.562;12.108;2022-11-20T11:05:54;14.20;;;13.23;;
26062;SDS011;13837;48.562;12.108;2022-11-20T11:08:44;15.63;;;14.52;;
26062;SDS011;13837;48.562;12.108;2022-11-20T11:14:04;14.88;;;13.93;;
26062;SDS011;13837;48.562;12.108;2022-11-20T11:16:34;15.13;;;14.05;;
26062;SDS011;13837;48.562;12.108;2022-11-20T11:19:04;15.02;;;14.13;;
26062;SDS011;13837;48.562;12.108;2022-11-20T11:21:31;15.77;;;14.82;;
26062;SDS011;13837;48.562;12.108;2022-11-20T11:24:04;15.75;;;14.80;;
26062;SDS011;13837;48.562;12.108;2022-11-20T11:26:30;15.02;;;14.13;;
26062;SDS011;13837;48.562;12.108;2022-11-20T11:28:56;16.38;;;15.15;;
26062;SDS011;13837;48.562;12.108;2022-11-20T11:31:29;15.48;;;14.50;;
26062;SDS011;13837;48.562;12.108;2022-11-20T11:36:42;15.63;;;14.60;;
26062;SDS011;13837;48.562;12.108;2022-11-20T11:39:20;22.70;;;21.30;;
26062;SDS011;13837;48.562;12.108;2022-11-20T11:41:46;16.60;;;15.40;;
26062;SDS011;13837;48.562;12.108;2022-11-20T11:44:21;14.25;;;13.35;;
26062;SDS011;13837;48.562;12.108;2022-11-20T11:55:42;14.55;;;13.75;;
26062;SDS011;13837;48.562;12.108;2022-11-20T12:03:48;14.10;;;13.30;;
26062;SDS011;13837;48.562;12.108;2022-11-20T12:06:24;14.35;;;13.30;;
26062;SDS011;13837;48.562;12.108;2022-11-20T12:08:55;14.27;;;13.38;;
26062;SDS011;13837;48.562;12.108;2022-11-20T12:11:31;13.52;;;12.70;;
26062;SDS011;13837;48.562;12.108;2022-11-20T12:14:33;13.77;;;13.00;;
26062;SDS011;13837;48.562;12.108;2022-11-20T12:17:01;13.02;;;12.30;;
26062;SDS011;13837;48.562;12.108;2022-11-20T12:19:31;13.52;;;12.52;;
26062;SDS011;13837;48.562;12.108;2022-11-20T12:24:55;12.50;;;11.88;;
26062;SDS011;13837;48.562;12.108;2022-11-20T12:35:50;13.98;;;13.18;;
26062;SDS011;13837;48.562;12.108;2022-11-20T12:47:24;13.80;;;13.10;;
26062;SDS011;13837;48.562;12.108;2022-11-20T12:52:56;13.52;;;12.73;;
26062;SDS011;13837;48.562;12.108;2022-11-20T12:55:42;13.90;;;12.98;;
26062;SDS011;13837;48.562;12.108;2022-11-20T12:58:36;13.55;;;12.95;;
26062;SDS011;13837;48.562;12.108;2022-11-20T13:04:06;13.18;;;12.40;;
26062;SDS011;13837;48.562;12.108;2022-11-20T13:06:48;13.77;;;12.98;;
26062;SDS011;13837;48.562;12.108;2022-11-20T13:09:16;14.00;;;13.30;;
26062;SDS011;13837;48.562;12.108;2022-11-20T13:17:24;13.70;;;13.00;;
26062;SDS011;13837;48.562;12.108;2022-11-20T13:20:00;13.30;;;12.70;;
26062;SDS011;13837;48.562;12.108;2022-11-20T13:22:28;14.15;;;13.45;;
26062;SDS011;13837;48.562;12.108;2022-11-20T13:24:56;15.30;;;14.40;;
26062;SDS011;13837;48.562;12.108;2022-11-20T13:27:22;14.50;;;13.70;;
26062;SDS011;13837;48.562;12.108;2022-11-20T13:29:59;16.63;;;15.52;;
26062;SDS011;13837;48.562;12.108;2022-11-20T13:32:53;14.55;;;13.75;;
26062;SDS011;13837;48.562;12.108;2022-11-20T13:35:26;14.68;;;13.75;;
26062;SDS011;13837;48.562;12.108;2022-11-20T13:38:03;13.13;;;12.50;;
26062;SDS011;13837;48.562;12.108;2022-11-20T13:40:35;13.02;;;12.43;;
26062;SDS011;13837;48.562;12.108;2022-11-20T13:46:06;17.23;;;15.93;;
26062;SDS011;13837;48.562;12.108;2022-11-20T13:48:38;15.98;;;14.85;;
26062;SDS011;13837;48.562;12.108;2022-11-20T13:54:10;15.25;;;14.35;;
26062;SDS011;13837;48.562;12.108;2022-11-20T13:56:56;17.30;;;16.10;;
26062;SDS011;13837;48.562;12.108;2022-11-20T14:02:13;14.53;;;13.73;;
26062;SDS011;13837;48.562;12.108;2022-11-20T14:07:08;15.30;;;14.40;;
26062;SDS011;13837;48.562;12.108;2022-11-20T14:09:34;15.27;;;14.38;;
26062;SDS011;13837;48.562;12.108;2022-11-20T14:12:01;16.17;;;14.98;;
26062;SDS011;13837;48.562;12.108;2022-11-20T14:14:28;17.80;;;16.70;;
26062;SDS011;13837;48.562;12.108;2022-11-20T14:17:08;15.57;;;14.68;;
26062;SDS011;13837;48.562;12.108;2022-11-20T14:19:42;15.93;;;14.82;;
26062;SDS011;13837;48.562;12.108;2022-11-20T14:22:21;15.70;;;14.77;;
26062;SDS011;13837;48.562;12.108;2022-11-20T14:24:48;15.35;;;14.48;;
26062;SDS011;13837;48.562;12.108;2022-11-20T14:27:26;15.57;;;14.57;;
26062;SDS011;13837;48.562;12.108;2022-11-20T14:29:52;15.25;;;14.27;;
26062;SDS011;13837;48.562;12.108;2022-11-20T14:32:18;14.82;;;13.90;;
26062;SDS011;13837;48.562;12.108;2022-11-20T14:38:25;18.85;;;17.25;;
26062;SDS011;13837;48.562;12.108;2022-11-20T14:41:05;15.88;;;14.77;;
26062;SDS011;13837;48.562;12.108;2022-11-20T14:43:35;14.80;;;13.90;;
26062;SDS011;13837;48.562;12.108;2022-11-20T14:46:11;16.55;;;15.32;;
26062;SDS011;13837;48.562;12.108;2022-11-20T14:48:53;14.63;;;13.75;;
26062;SDS011;13837;48.562;12.108;2022-11-20T14:54:17;15.60;;;14.52;;
26062;SDS011;13837;48.562;12.108;2022-11-20T14:56:57;17.30;;;15.82;;
26062;SDS011;13837;48.562;12.108;2022-11-20T14:59:27;26.00;;;19.02;;
26062;SDS011;13837;48.562;12.108;2022-11-20T15:01:59;27.55;;;21.42;;
26062;SDS011;13837;48.562;12.108;2022-11-20T15:04:28;17.63;;;16.15;;
26062;SDS011;13837;48.562;12.108;2022-11-20T15:07:02;18.98;;;17.38;;
26062;SDS011;13837;48.562;12.108;2022-11-20T15:09:31;17.73;;;16.25;;
26062;SDS011;13837;48.562;12.108;2022-11-20T15:12:00;14.43;;;13.48;;
26062;SDS011;13837;48.562;12.108;2022-11-20T15:14:54;15.25;;;14.25;;
26062;SDS011;13837;48.562;12.108;2022-11-20T15:17:55;14.93;;;13.95;;
26062;SDS011;13837;48.562;12.108;2022-11-20T15:20:26;14.07;;;13.18;;
26062;SDS011;13837;48.562;12.108;2022-11-20T15:22:59;14.90;;;13.93;;
26062;SDS011;13837;48.562;12.108;2022-11-20T15:25:33;14.57;;;13.73;;
26062;SDS011;13837;48.562;12.108;2022-11-20T15:27:59;14.32;;;13.48;;
26062;SDS011;13837;48.562;12.108;2022-11-20T15:30:27;15.05;;;14.23;;
26062;SDS011;13837;48.562;12.108;2022-11-20T15:33:09;15.07;;;14.15;;
26062;SDS011;13837;48.562;12.108;2022-11-20T15:35:38;15.15;;;14.25;;
26062;SDS011;13837;48.562;12.108;2022-11-20T15:38:04;19.27;;;17.45;;
26062;SDS011;13837;48.562;12.108;2022-11-20T15:40:41;16.33;;;15.20;;
26062;SDS011;13837;48.562;12.108;2022-11-20T15:43:09;25.50;;;22.95;;
26062;SDS011;13837;48.562;12.108;2022-11-20T15:51:06;15.18;;;14.38;;
26062;SDS011;13837;48.562;12.108;2022-11-20T15:53:40;13.93;;;13.23;;
26062;SDS011;13837;48.562;12.108;2022-11-20T15:56:13;14.48;;;13.77;;
26062;SDS011;13837;48.562;12.108;2022-11-20T15:58:40;15.18;;;14.07;;
26062;SDS011;13837;48.562;12.108;2022-11-20T16:01:13;14.98;;;14.07;;
26062;SDS011;13837;48.562;12.108;2022-11-20T16:03:50;15.75;;;14.65;;
26062;SDS011;13837;48.562;12.108;2022-11-20T16:06:16;16.13;;;15.00;;
26062;SDS011;13837;48.562;12.108;2022-11-20T16:08:45;16.85;;;15.63;;
26062;SDS011;13837;48.562;12.108;2022-11-20T16:11:12;16.00;;;15.00;;
26062;SDS011;13837;48.562;12.108;2022-11-20T16:13:39;16.80;;;15.73;;
26062;SDS011;13837;48.562;12.108;2022-11-20T16:16:32;17.02;;;15.68;;
26062;SDS011;13837;48.562;12.108;2022-11-20T16:19:00;16.42;;;15.32;;
26062;SDS011;13837;48.562;12.108;2022-11-20T16:21:26;17.20;;;16.02;;
26062;SDS011;13837;48.562;12.108;2022-11-20T16:24:03;15.85;;;14.85;;
26062;SDS011;13837;48.562;12.108;2022-11-20T16:26:36;20.58;;;18.75;;
26062;SDS011;13837;48.562;12.108;2022-11-20T16:29:03;26.83;;;23.95;;
26062;SDS011;13837;48.562;12.108;2022-11-20T16:31:31;23.37;;;21.03;;
26062;SDS011;13837;48.562;12.108;2022-11-20T16:34:01;21.73;;;19.73;;
26062;SDS011;13837;48.562;12.108;2022-11-20T16:36:29;20.35;;;18.73;;